sensor_id;sensor_type;location;lat;lon;timestamp;P1;durP1;ratioP1;P2;durP2;ratioP2
62832;SDS011;48891;49.220;6.920;2022-12-31T00:00:07;12.70;;;7.95;;
62832;SDS011;48891;49.220;6.920;2022-12-31T00:02:33;13.05;;;8.50;;
62832;SDS011;48891;49.220;6.920;2022-12-31T00:04:59;10.65;;;7.70;;
62832;SDS011;48891;49.220;6.920;2022-12-31T00:07:24;10.55;;;8.00;;
62832;SDS011;48891;49.220;6.920;2022-12-31T00:09:49;12.52;;;8.10;;
62832;SDS011;48891;49.220;6.920;2022-12-31T00:12:14;13.40;;;8.82;;
62832;SDS011;48891;49.220;6.920;2022-12-31T00:14:40;11.82;;;8.27;;
62832;SDS011;48891;49.220;6.920;2022-12-31T00:17:05;12.38;;;8.13;;
62832;SDS011;48891;49.220;6.920;2022-12-31T00:19:30;11.43;;;7.80;;
62832;SDS011;48891;49.220;6.920;2022-12-31T00:21:55;13.02;;;8.07;;
62832;SDS011;48891;49.220;6.920;2022-12-31T00:24:21;10.20;;;7.68;;
62832;SDS011;48891;49.220;6.920;2022-12-31T00:26:46;11.57;;;8.05;;
62832;SDS011;48891;49.220;6.920;2022-12-31T00:29:11;11.38;;;7.82;;
62832;SDS011;48891;49.220;6.920;2022-12-31T00:31:37;11.10;;;7.82;;
62832;SDS011;48891;49.220;6.920;2022-12-31T00:34:04;13.15;;;8.05;;
62832;SDS011;48891;49.220;6.920;2022-12-31T00:36:34;11.82;;;7.57;;
62832;SDS011;48891;49.220;6.920;2022-12-31T00:39:02;11.27;;;7.60;;
62832;SDS011;48891;49.220;6.920;2022-12-31T00:41:29;11.35;;;7.50;;
62832;SDS011;48891;49.220;6.920;2022-12-31T00:43:55;12.05;;;7.78;;
62832;SDS011;48891;49.220;6.920;2022-12-31T00:46:20;11.80;;;7.40;;
62832;SDS011;48891;49.220;6.920;2022-12-31T00:48:46;12.00;;;7.95;;
62832;SDS011;48891;49.220;6.920;2022-12-31T00:51:13;10.85;;;7.20;;
62832;SDS011;48891;49.220;6.920;2022-12-31T00:53:40;10.82;;;7.30;;
62832;SDS011;48891;49.220;6.920;2022-12-31T00:56:07;12.32;;;7.68;;
62832;SDS011;48891;49.220;6.920;2022-12-31T00:58:36;11.90;;;7.75;;
62832;SDS011;48891;49.220;6.920;2022-12-31T01:01:13;11.27;;;7.53;;
62832;SDS011;48891;49.220;6.920;2022-12-31T01:03:40;11.30;;;7.18;;
62832;SDS011;48891;49.220;6.920;2022-12-31T01:06:06;12.35;;;8.13;;
62832;SDS011;48891;49.220;6.920;2022-12-31T01:08:31;9.80;;;7.22;;
62832;SDS011;48891;49.220;6.920;2022-12-31T01:10:57;10.13;;;7.47;;
62832;SDS011;48891;49.220;6.920;2022-12-31T01:13:23;11.18;;;7.03;;
62832;SDS011;48891;49.220;6.920;2022-12-31T01:15:49;11.30;;;7.32;;
62832;SDS011;48891;49.220;6.920;2022-12-31T01:18:14;10.32;;;6.88;;
62832;SDS011;48891;49.220;6.920;2022-12-31T01:20:40;11.15;;;7.45;;
62832;SDS011;48891;49.220;6.920;2022-12-31T01:23:07;11.23;;;7.22;;
62832;SDS011;48891;49.220;6.920;2022-12-31T01:25:34;12.15;;;7.80;;
62832;SDS011;48891;49.220;6.920;2022-12-31T01:28:00;10.60;;;7.15;;
62832;SDS011;48891;49.220;6.920;2022-12-31T01:30:25;12.10;;;7.50;;
62832;SDS011;48891;49.220;6.920;2022-12-31T01:32:50;12.73;;;7.30;;
62832;SDS011;48891;49.220;6.920;2022-12-31T01:35:15;11.52;;;7.00;;
62832;SDS011;48891;49.220;6.920;2022-12-31T01:37:41;12.90;;;7.60;;
62832;SDS011;48891;49.220;6.920;2022-12-31T01:40:06;12.48;;;7.03;;
62832;SDS011;48891;49.220;6.920;2022-12-31T01:42:32;11.27;;;7.53;;
62832;SDS011;48891;49.220;6.920;2022-12-31T01:44:57;11.40;;;7.65;;
62832;SDS011;48891;49.220;6.920;2022-12-31T01:47:44;11.15;;;7.43;;
62832;SDS011;48891;49.220;6.920;2022-12-31T01:50:15;11.70;;;7.53;;
62832;SDS011;48891;49.220;6.920;2022-12-31T01:52:50;11.95;;;7.60;;
62832;SDS011;48891;49.220;6.920;2022-12-31T01:57:58;11.00;;;7.13;;
62832;SDS011;48891;49.220;6.920;2022-12-31T02:00:28;9.38;;;6.63;;
62832;SDS011;48891;49.220;6.920;2022-12-31T02:02:53;9.88;;;7.03;;
62832;SDS011;48891;49.220;6.920;2022-12-31T02:05:25;11.05;;;7.30;;
62832;SDS011;48891;49.220;6.920;2022-12-31T02:07:55;11.30;;;7.00;;
62832;SDS011;48891;49.220;6.920;2022-12-31T02:10:21;10.25;;;7.38;;
62832;SDS011;48891;49.220;6.920;2022-12-31T02:12:46;12.63;;;7.07;;
62832;SDS011;48891;49.220;6.920;2022-12-31T02:15:12;10.57;;;6.60;;
62832;SDS011;48891;49.220;6.920;2022-12-31T02:20:18;9.85;;;6.63;;
62832;SDS011;48891;49.220;6.920;2022-12-31T02:30:33;10.40;;;6.60;;
62832;SDS011;48891;49.220;6.920;2022-12-31T02:35:40;12.82;;;6.85;;
62832;SDS011;48891;49.220;6.920;2022-12-31T02:38:15;10.65;;;7.07;;
62832;SDS011;48891;49.220;6.920;2022-12-31T02:40:44;11.50;;;7.00;;
62832;SDS011;48891;49.220;6.920;2022-12-31T02:43:10;10.70;;;7.07;;
62832;SDS011;48891;49.220;6.920;2022-12-31T02:45:46;10.30;;;6.72;;
62832;SDS011;48891;49.220;6.920;2022-12-31T02:48:38;10.40;;;6.47;;
62832;SDS011;48891;49.220;6.920;2022-12-31T02:53:46;10.48;;;7.00;;
62832;SDS011;48891;49.220;6.920;2022-12-31T02:56:23;10.10;;;6.28;;
62832;SDS011;48891;49.220;6.920;2022-12-31T02:58:57;10.32;;;6.15;;
62832;SDS011;48891;49.220;6.920;2022-12-31T03:01:35;10.80;;;6.78;;
62832;SDS011;48891;49.220;6.920;2022-12-31T03:04:04;9.60;;;7.18;;
62832;SDS011;48891;49.220;6.920;2022-12-31T03:06:29;9.75;;;6.88;;
62832;SDS011;48891;49.220;6.920;2022-12-31T03:08:55;10.15;;;6.13;;
62832;SDS011;48891;49.220;6.920;2022-12-31T03:11:20;9.40;;;6.13;;
62832;SDS011;48891;49.220;6.920;2022-12-31T03:13:45;10.25;;;6.30;;
62832;SDS011;48891;49.220;6.920;2022-12-31T03:16:11;8.63;;;6.13;;
62832;SDS011;48891;49.220;6.920;2022-12-31T03:18:36;10.88;;;6.30;;
62832;SDS011;48891;49.220;6.920;2022-12-31T03:21:01;9.30;;;6.18;;
62832;SDS011;48891;49.220;6.920;2022-12-31T03:23:28;10.70;;;6.45;;
62832;SDS011;48891;49.220;6.920;2022-12-31T03:28:22;9.20;;;6.55;;
62832;SDS011;48891;49.220;6.920;2022-12-31T03:30:52;8.85;;;5.88;;
62832;SDS011;48891;49.220;6.920;2022-12-31T03:33:20;9.13;;;6.22;;
62832;SDS011;48891;49.220;6.920;2022-12-31T03:35:46;8.63;;;6.43;;
62832;SDS011;48891;49.220;6.920;2022-12-31T03:38:12;9.48;;;6.28;;
62832;SDS011;48891;49.220;6.920;2022-12-31T03:40:41;10.32;;;6.38;;
62832;SDS011;48891;49.220;6.920;2022-12-31T03:43:12;9.85;;;6.03;;
62832;SDS011;48891;49.220;6.920;2022-12-31T03:45:37;10.57;;;6.45;;
62832;SDS011;48891;49.220;6.920;2022-12-31T03:48:03;10.07;;;6.45;;
62832;SDS011;48891;49.220;6.920;2022-12-31T03:50:30;10.32;;;6.10;;
62832;SDS011;48891;49.220;6.920;2022-12-31T03:52:56;8.95;;;5.97;;
62832;SDS011;48891;49.220;6.920;2022-12-31T03:55:21;8.35;;;5.60;;
62832;SDS011;48891;49.220;6.920;2022-12-31T03:57:46;10.50;;;6.72;;
62832;SDS011;48891;49.220;6.920;2022-12-31T04:00:12;10.32;;;6.65;;
62832;SDS011;48891;49.220;6.920;2022-12-31T04:02:40;8.80;;;6.03;;
62832;SDS011;48891;49.220;6.920;2022-12-31T04:05:06;9.00;;;5.70;;
62832;SDS011;48891;49.220;6.920;2022-12-31T04:07:31;9.25;;;6.13;;
62832;SDS011;48891;49.220;6.920;2022-12-31T04:09:57;8.20;;;5.97;;
62832;SDS011;48891;49.220;6.920;2022-12-31T04:12:22;8.05;;;5.78;;
62832;SDS011;48891;49.220;6.920;2022-12-31T04:14:47;10.00;;;6.30;;
62832;SDS011;48891;49.220;6.920;2022-12-31T04:17:13;8.63;;;5.57;;
62832;SDS011;48891;49.220;6.920;2022-12-31T04:19:38;8.48;;;6.22;;
62832;SDS011;48891;49.220;6.920;2022-12-31T04:22:03;8.23;;;5.63;;
62832;SDS011;48891;49.220;6.920;2022-12-31T04:24:29;9.55;;;6.05;;
62832;SDS011;48891;49.220;6.920;2022-12-31T04:26:54;8.65;;;5.80;;
62832;SDS011;48891;49.220;6.920;2022-12-31T04:29:20;7.80;;;5.57;;
62832;SDS011;48891;49.220;6.920;2022-12-31T04:31:45;9.48;;;5.90;;
62832;SDS011;48891;49.220;6.920;2022-12-31T04:34:10;9.60;;;5.68;;
62832;SDS011;48891;49.220;6.920;2022-12-31T04:36:36;9.18;;;5.68;;
62832;SDS011;48891;49.220;6.920;2022-12-31T04:39:01;9.13;;;6.03;;
62832;SDS011;48891;49.220;6.920;2022-12-31T04:41:26;7.47;;;5.57;;
62832;SDS011;48891;49.220;6.920;2022-12-31T04:43:52;8.10;;;5.28;;
62832;SDS011;48891;49.220;6.920;2022-12-31T04:46:21;8.25;;;5.57;;
62832;SDS011;48891;49.220;6.920;2022-12-31T04:48:48;8.38;;;5.63;;
62832;SDS011;48891;49.220;6.920;2022-12-31T04:51:14;8.20;;;5.43;;
62832;SDS011;48891;49.220;6.920;2022-12-31T04:53:40;8.88;;;6.03;;
62832;SDS011;48891;49.220;6.920;2022-12-31T04:56:06;8.77;;;5.63;;
62832;SDS011;48891;49.220;6.920;2022-12-31T04:58:32;8.30;;;5.78;;
62832;SDS011;48891;49.220;6.920;2022-12-31T05:00:58;8.07;;;5.38;;
62832;SDS011;48891;49.220;6.920;2022-12-31T05:03:24;9.05;;;5.88;;
62832;SDS011;48891;49.220;6.920;2022-12-31T05:05:51;9.25;;;5.78;;
62832;SDS011;48891;49.220;6.920;2022-12-31T05:08:17;8.10;;;5.45;;
62832;SDS011;48891;49.220;6.920;2022-12-31T05:10:44;7.88;;;5.80;;
62832;SDS011;48891;49.220;6.920;2022-12-31T05:13:11;8.77;;;5.23;;
62832;SDS011;48891;49.220;6.920;2022-12-31T05:15:36;8.70;;;6.05;;
62832;SDS011;48891;49.220;6.920;2022-12-31T05:18:02;7.68;;;5.45;;
62832;SDS011;48891;49.220;6.920;2022-12-31T05:20:27;8.25;;;5.00;;
62832;SDS011;48891;49.220;6.920;2022-12-31T05:22:53;8.20;;;5.68;;
62832;SDS011;48891;49.220;6.920;2022-12-31T05:25:18;8.05;;;5.45;;
62832;SDS011;48891;49.220;6.920;2022-12-31T05:27:43;6.47;;;4.68;;
62832;SDS011;48891;49.220;6.920;2022-12-31T05:30:09;7.35;;;5.35;;
62832;SDS011;48891;49.220;6.920;2022-12-31T05:32:35;7.80;;;5.68;;
62832;SDS011;48891;49.220;6.920;2022-12-31T05:35:00;8.63;;;5.47;;
62832;SDS011;48891;49.220;6.920;2022-12-31T05:37:26;8.75;;;5.68;;
62832;SDS011;48891;49.220;6.920;2022-12-31T05:39:52;8.43;;;5.82;;
62832;SDS011;48891;49.220;6.920;2022-12-31T05:42:18;7.20;;;5.32;;
62832;SDS011;48891;49.220;6.920;2022-12-31T05:44:43;8.75;;;5.68;;
62832;SDS011;48891;49.220;6.920;2022-12-31T05:47:09;8.10;;;5.53;;
62832;SDS011;48891;49.220;6.920;2022-12-31T05:49:34;7.45;;;5.35;;
62832;SDS011;48891;49.220;6.920;2022-12-31T05:51:59;8.23;;;5.30;;
62832;SDS011;48891;49.220;6.920;2022-12-31T05:54:24;8.57;;;5.68;;
62832;SDS011;48891;49.220;6.920;2022-12-31T05:56:50;7.05;;;4.80;;
62832;SDS011;48891;49.220;6.920;2022-12-31T05:59:15;7.15;;;5.43;;
62832;SDS011;48891;49.220;6.920;2022-12-31T06:01:40;7.35;;;5.15;;
62832;SDS011;48891;49.220;6.920;2022-12-31T06:04:05;7.32;;;5.15;;
62832;SDS011;48891;49.220;6.920;2022-12-31T06:06:31;8.02;;;5.32;;
62832;SDS011;48891;49.220;6.920;2022-12-31T06:08:56;7.28;;;4.93;;
62832;SDS011;48891;49.220;6.920;2022-12-31T06:11:21;6.97;;;4.90;;
62832;SDS011;48891;49.220;6.920;2022-12-31T06:13:46;7.93;;;5.72;;
62832;SDS011;48891;49.220;6.920;2022-12-31T06:16:12;7.75;;;5.10;;
62832;SDS011;48891;49.220;6.920;2022-12-31T06:18:37;7.78;;;5.45;;
62832;SDS011;48891;49.220;6.920;2022-12-31T06:21:03;6.78;;;4.93;;
62832;SDS011;48891;49.220;6.920;2022-12-31T06:23:28;7.65;;;5.65;;
62832;SDS011;48891;49.220;6.920;2022-12-31T06:25:53;8.27;;;5.03;;
62832;SDS011;48891;49.220;6.920;2022-12-31T06:28:19;7.53;;;5.07;;
62832;SDS011;48891;49.220;6.920;2022-12-31T06:30:44;7.32;;;5.07;;
62832;SDS011;48891;49.220;6.920;2022-12-31T06:33:09;7.30;;;5.10;;
62832;SDS011;48891;49.220;6.920;2022-12-31T06:35:34;8.57;;;4.78;;
62832;SDS011;48891;49.220;6.920;2022-12-31T06:38:00;7.70;;;4.90;;
62832;SDS011;48891;49.220;6.920;2022-12-31T06:40:25;9.25;;;4.55;;
62832;SDS011;48891;49.220;6.920;2022-12-31T06:42:50;7.55;;;5.15;;
62832;SDS011;48891;49.220;6.920;2022-12-31T06:45:15;6.82;;;4.90;;
62832;SDS011;48891;49.220;6.920;2022-12-31T06:47:41;7.15;;;4.55;;
62832;SDS011;48891;49.220;6.920;2022-12-31T06:50:06;6.88;;;4.50;;
62832;SDS011;48891;49.220;6.920;2022-12-31T06:52:32;7.00;;;4.63;;
62832;SDS011;48891;49.220;6.920;2022-12-31T06:54:57;7.30;;;4.45;;
62832;SDS011;48891;49.220;6.920;2022-12-31T06:57:23;6.03;;;4.28;;
62832;SDS011;48891;49.220;6.920;2022-12-31T06:59:48;7.82;;;5.30;;
62832;SDS011;48891;49.220;6.920;2022-12-31T07:02:37;7.07;;;4.72;;
62832;SDS011;48891;49.220;6.920;2022-12-31T07:07:54;7.85;;;4.97;;
62832;SDS011;48891;49.220;6.920;2022-12-31T07:18:45;7.15;;;4.53;;
62832;SDS011;48891;49.220;6.920;2022-12-31T07:21:15;6.40;;;4.80;;
62832;SDS011;48891;49.220;6.920;2022-12-31T07:23:45;8.00;;;5.07;;
62832;SDS011;48891;49.220;6.920;2022-12-31T07:28:51;6.15;;;4.35;;
62832;SDS011;48891;49.220;6.920;2022-12-31T07:34:33;6.95;;;4.95;;
62832;SDS011;48891;49.220;6.920;2022-12-31T07:39:53;6.65;;;4.55;;
62832;SDS011;48891;49.220;6.920;2022-12-31T07:45:12;6.53;;;4.43;;
62832;SDS011;48891;49.220;6.920;2022-12-31T07:47:43;7.60;;;4.60;;
62832;SDS011;48891;49.220;6.920;2022-12-31T07:50:15;6.88;;;4.55;;
62832;SDS011;48891;49.220;6.920;2022-12-31T07:52:43;7.32;;;4.88;;
62832;SDS011;48891;49.220;6.920;2022-12-31T07:55:08;6.07;;;4.30;;
62832;SDS011;48891;49.220;6.920;2022-12-31T07:57:37;7.65;;;4.50;;
62832;SDS011;48891;49.220;6.920;2022-12-31T08:00:17;6.65;;;5.00;;
62832;SDS011;48891;49.220;6.920;2022-12-31T08:08:19;10.43;;;4.63;;
62832;SDS011;48891;49.220;6.920;2022-12-31T08:13:35;7.50;;;4.47;;
62832;SDS011;48891;49.220;6.920;2022-12-31T08:16:02;7.55;;;4.40;;
62832;SDS011;48891;49.220;6.920;2022-12-31T08:18:27;7.30;;;5.05;;
62832;SDS011;48891;49.220;6.920;2022-12-31T08:23:40;7.50;;;4.40;;
62832;SDS011;48891;49.220;6.920;2022-12-31T08:26:33;8.15;;;4.63;;
62832;SDS011;48891;49.220;6.920;2022-12-31T08:29:12;6.45;;;4.40;;
62832;SDS011;48891;49.220;6.920;2022-12-31T08:43:32;7.13;;;4.32;;
62832;SDS011;48891;49.220;6.920;2022-12-31T08:46:25;6.97;;;4.80;;
62832;SDS011;48891;49.220;6.920;2022-12-31T08:48:55;8.55;;;4.68;;
62832;SDS011;48891;49.220;6.920;2022-12-31T08:51:21;9.32;;;4.88;;
62832;SDS011;48891;49.220;6.920;2022-12-31T08:53:48;7.13;;;4.47;;
62832;SDS011;48891;49.220;6.920;2022-12-31T08:56:33;7.53;;;4.30;;
62832;SDS011;48891;49.220;6.920;2022-12-31T09:07:27;9.10;;;4.60;;
62832;SDS011;48891;49.220;6.920;2022-12-31T09:10:43;8.32;;;4.57;;
62832;SDS011;48891;49.220;6.920;2022-12-31T09:13:38;9.60;;;4.57;;
62832;SDS011;48891;49.220;6.920;2022-12-31T09:18:49;7.40;;;4.47;;
62832;SDS011;48891;49.220;6.920;2022-12-31T09:21:15;7.80;;;4.55;;
62832;SDS011;48891;49.220;6.920;2022-12-31T09:23:40;9.43;;;4.80;;
62832;SDS011;48891;49.220;6.920;2022-12-31T09:28:52;9.63;;;4.30;;
62832;SDS011;48891;49.220;6.920;2022-12-31T09:31:35;9.25;;;4.55;;
62832;SDS011;48891;49.220;6.920;2022-12-31T09:34:04;7.03;;;4.30;;
62832;SDS011;48891;49.220;6.920;2022-12-31T09:36:45;8.32;;;4.57;;
62832;SDS011;48891;49.220;6.920;2022-12-31T09:59:09;7.38;;;4.38;;
62832;SDS011;48891;49.220;6.920;2022-12-31T10:12:32;7.63;;;4.53;;
62832;SDS011;48891;49.220;6.920;2022-12-31T10:18:05;5.95;;;4.05;;
62832;SDS011;48891;49.220;6.920;2022-12-31T10:23:54;6.07;;;3.92;;
62832;SDS011;48891;49.220;6.920;2022-12-31T10:29:53;6.70;;;4.40;;
62832;SDS011;48891;49.220;6.920;2022-12-31T10:32:43;5.97;;;4.18;;
62832;SDS011;48891;49.220;6.920;2022-12-31T10:37:52;6.90;;;4.30;;
62832;SDS011;48891;49.220;6.920;2022-12-31T10:43:40;7.15;;;4.88;;
62832;SDS011;48891;49.220;6.920;2022-12-31T10:46:24;5.97;;;4.32;;
62832;SDS011;48891;49.220;6.920;2022-12-31T10:51:40;7.25;;;5.10;;
62832;SDS011;48891;49.220;6.920;2022-12-31T11:00:10;8.32;;;4.50;;
62832;SDS011;48891;49.220;6.920;2022-12-31T11:08:16;7.63;;;4.45;;
62832;SDS011;48891;49.220;6.920;2022-12-31T11:11:02;7.63;;;4.50;;
62832;SDS011;48891;49.220;6.920;2022-12-31T11:14:03;7.10;;;4.70;;
62832;SDS011;48891;49.220;6.920;2022-12-31T11:16:52;8.55;;;5.00;;
62832;SDS011;48891;49.220;6.920;2022-12-31T11:30:31;7.05;;;4.70;;
62832;SDS011;48891;49.220;6.920;2022-12-31T11:38:36;7.07;;;4.55;;
62832;SDS011;48891;49.220;6.920;2022-12-31T11:44:10;8.15;;;5.13;;
62832;SDS011;48891;49.220;6.920;2022-12-31T11:46:47;7.40;;;4.70;;
62832;SDS011;48891;49.220;6.920;2022-12-31T12:00:23;7.20;;;4.63;;
62832;SDS011;48891;49.220;6.920;2022-12-31T12:02:49;7.03;;;5.00;;
62832;SDS011;48891;49.220;6.920;2022-12-31T12:05:17;6.28;;;4.50;;
62832;SDS011;48891;49.220;6.920;2022-12-31T12:07:46;5.78;;;4.30;;
62832;SDS011;48891;49.220;6.920;2022-12-31T12:10:22;7.32;;;4.90;;
62832;SDS011;48891;49.220;6.920;2022-12-31T12:15:27;6.63;;;4.65;;
62832;SDS011;48891;49.220;6.920;2022-12-31T12:17:56;7.20;;;4.13;;
62832;SDS011;48891;49.220;6.920;2022-12-31T12:20:27;8.07;;;4.80;;
62832;SDS011;48891;49.220;6.920;2022-12-31T12:22:56;6.88;;;4.00;;
62832;SDS011;48891;49.220;6.920;2022-12-31T12:25:24;6.57;;;4.32;;
62832;SDS011;48891;49.220;6.920;2022-12-31T12:27:51;6.20;;;4.70;;
62832;SDS011;48891;49.220;6.920;2022-12-31T12:32:55;6.95;;;4.60;;
62832;SDS011;48891;49.220;6.920;2022-12-31T12:35:28;7.20;;;4.57;;
62832;SDS011;48891;49.220;6.920;2022-12-31T12:38:14;6.68;;;4.40;;
62832;SDS011;48891;49.220;6.920;2022-12-31T12:40:50;7.45;;;4.57;;
62832;SDS011;48891;49.220;6.920;2022-12-31T12:43:24;6.78;;;4.50;;
62832;SDS011;48891;49.220;6.920;2022-12-31T12:45:52;6.20;;;4.38;;
62832;SDS011;48891;49.220;6.920;2022-12-31T12:51:07;6.40;;;4.43;;
62832;SDS011;48891;49.220;6.920;2022-12-31T13:04:15;7.20;;;4.30;;
62832;SDS011;48891;49.220;6.920;2022-12-31T13:12:40;6.43;;;4.30;;
62832;SDS011;48891;49.220;6.920;2022-12-31T13:20:28;6.40;;;4.40;;
62832;SDS011;48891;49.220;6.920;2022-12-31T13:23:10;6.10;;;4.00;;
62832;SDS011;48891;49.220;6.920;2022-12-31T13:26:46;5.80;;;3.78;;
62832;SDS011;48891;49.220;6.920;2022-12-31T13:28:56;6.68;;;4.45;;
62832;SDS011;48891;49.220;6.920;2022-12-31T13:31:25;6.22;;;3.85;;
62832;SDS011;48891;49.220;6.920;2022-12-31T13:33:58;5.93;;;3.78;;
62832;SDS011;48891;49.220;6.920;2022-12-31T13:36:28;7.13;;;3.85;;
62832;SDS011;48891;49.220;6.920;2022-12-31T13:38:54;6.20;;;4.20;;
62832;SDS011;48891;49.220;6.920;2022-12-31T13:41:28;6.65;;;3.95;;
62832;SDS011;48891;49.220;6.920;2022-12-31T13:46:54;5.72;;;3.78;;
62832;SDS011;48891;49.220;6.920;2022-12-31T13:57:53;5.53;;;3.95;;
62832;SDS011;48891;49.220;6.920;2022-12-31T14:00:29;6.80;;;3.88;;
62832;SDS011;48891;49.220;6.920;2022-12-31T14:05:42;5.50;;;3.88;;
62832;SDS011;48891;49.220;6.920;2022-12-31T14:08:18;6.35;;;4.18;;
62832;SDS011;48891;49.220;6.920;2022-12-31T14:10:47;6.35;;;4.30;;
62832;SDS011;48891;49.220;6.920;2022-12-31T14:18:32;5.55;;;3.70;;
62832;SDS011;48891;49.220;6.920;2022-12-31T14:23:49;5.05;;;3.60;;
62832;SDS011;48891;49.220;6.920;2022-12-31T14:39:43;4.90;;;3.40;;
62832;SDS011;48891;49.220;6.920;2022-12-31T14:45:22;6.20;;;3.38;;
62832;SDS011;48891;49.220;6.920;2022-12-31T14:48:03;5.15;;;3.25;;
62832;SDS011;48891;49.220;6.920;2022-12-31T14:50:42;4.93;;;3.50;;
62832;SDS011;48891;49.220;6.920;2022-12-31T14:53:17;5.88;;;3.53;;
62832;SDS011;48891;49.220;6.920;2022-12-31T14:55:54;5.93;;;3.60;;
62832;SDS011;48891;49.220;6.920;2022-12-31T14:58:23;5.60;;;3.72;;
62832;SDS011;48891;49.220;6.920;2022-12-31T15:03:39;6.05;;;3.42;;
62832;SDS011;48891;49.220;6.920;2022-12-31T15:06:09;5.57;;;3.72;;
62832;SDS011;48891;49.220;6.920;2022-12-31T15:12:09;4.82;;;3.25;;
62832;SDS011;48891;49.220;6.920;2022-12-31T15:18:02;4.50;;;3.20;;
62832;SDS011;48891;49.220;6.920;2022-12-31T15:21:35;5.75;;;3.65;;
62832;SDS011;48891;49.220;6.920;2022-12-31T15:23:54;5.07;;;3.58;;
62832;SDS011;48891;49.220;6.920;2022-12-31T15:26:21;5.30;;;3.55;;
62832;SDS011;48891;49.220;6.920;2022-12-31T15:29:05;4.63;;;2.97;;
62832;SDS011;48891;49.220;6.920;2022-12-31T15:31:43;5.80;;;3.58;;
62832;SDS011;48891;49.220;6.920;2022-12-31T15:34:24;5.88;;;3.05;;
62832;SDS011;48891;49.220;6.920;2022-12-31T15:36:58;4.90;;;3.15;;
62832;SDS011;48891;49.220;6.920;2022-12-31T15:39:36;5.07;;;3.40;;
62832;SDS011;48891;49.220;6.920;2022-12-31T15:42:20;5.28;;;3.00;;
62832;SDS011;48891;49.220;6.920;2022-12-31T15:45:12;4.45;;;2.90;;
62832;SDS011;48891;49.220;6.920;2022-12-31T15:47:47;5.22;;;3.50;;
62832;SDS011;48891;49.220;6.920;2022-12-31T15:50:19;4.63;;;3.22;;
62832;SDS011;48891;49.220;6.920;2022-12-31T15:52:55;6.00;;;3.22;;
62832;SDS011;48891;49.220;6.920;2022-12-31T15:55:43;4.87;;;3.30;;
62832;SDS011;48891;49.220;6.920;2022-12-31T15:58:15;5.03;;;3.30;;
62832;SDS011;48891;49.220;6.920;2022-12-31T16:03:46;4.13;;;2.92;;
62832;SDS011;48891;49.220;6.920;2022-12-31T16:06:15;4.53;;;2.80;;
62832;SDS011;48891;49.220;6.920;2022-12-31T16:08:45;5.57;;;3.10;;
62832;SDS011;48891;49.220;6.920;2022-12-31T16:11:13;4.63;;;2.92;;
62832;SDS011;48891;49.220;6.920;2022-12-31T16:13:40;4.93;;;3.00;;
62832;SDS011;48891;49.220;6.920;2022-12-31T16:16:18;5.07;;;3.28;;
62832;SDS011;48891;49.220;6.920;2022-12-31T16:18:43;4.85;;;3.20;;
62832;SDS011;48891;49.220;6.920;2022-12-31T16:21:29;5.03;;;3.10;;
62832;SDS011;48891;49.220;6.920;2022-12-31T16:24:24;4.70;;;2.90;;
62832;SDS011;48891;49.220;6.920;2022-12-31T16:27:07;4.28;;;2.75;;
62832;SDS011;48891;49.220;6.920;2022-12-31T16:29:40;4.30;;;3.13;;
62832;SDS011;48891;49.220;6.920;2022-12-31T16:32:15;5.50;;;3.10;;
62832;SDS011;48891;49.220;6.920;2022-12-31T16:34:42;3.67;;;2.80;;
62832;SDS011;48891;49.220;6.920;2022-12-31T16:37:18;5.07;;;3.28;;
62832;SDS011;48891;49.220;6.920;2022-12-31T16:42:22;4.47;;;3.00;;
62832;SDS011;48891;49.220;6.920;2022-12-31T16:44:50;4.65;;;3.10;;
62832;SDS011;48891;49.220;6.920;2022-12-31T16:47:28;4.45;;;3.20;;
62832;SDS011;48891;49.220;6.920;2022-12-31T16:50:03;4.32;;;3.20;;
62832;SDS011;48891;49.220;6.920;2022-12-31T16:54:59;5.75;;;3.10;;
62832;SDS011;48891;49.220;6.920;2022-12-31T16:57:26;5.40;;;3.13;;
62832;SDS011;48891;49.220;6.920;2022-12-31T16:59:56;7.55;;;3.22;;
62832;SDS011;48891;49.220;6.920;2022-12-31T17:02:25;5.38;;;3.50;;
62832;SDS011;48891;49.220;6.920;2022-12-31T17:04:54;3.72;;;2.70;;
62832;SDS011;48891;49.220;6.920;2022-12-31T17:07:23;4.65;;;3.40;;
62832;SDS011;48891;49.220;6.920;2022-12-31T17:12:31;6.32;;;3.22;;
62832;SDS011;48891;49.220;6.920;2022-12-31T17:15:00;4.35;;;3.00;;
62832;SDS011;48891;49.220;6.920;2022-12-31T17:17:27;3.90;;;2.65;;
62832;SDS011;48891;49.220;6.920;2022-12-31T17:19:57;4.57;;;3.13;;
62832;SDS011;48891;49.220;6.920;2022-12-31T17:22:40;4.15;;;2.80;;
62832;SDS011;48891;49.220;6.920;2022-12-31T17:25:08;4.38;;;2.97;;
62832;SDS011;48891;49.220;6.920;2022-12-31T17:27:41;4.20;;;2.78;;
62832;SDS011;48891;49.220;6.920;2022-12-31T17:30:21;4.90;;;2.95;;
62832;SDS011;48891;49.220;6.920;2022-12-31T17:32:59;4.45;;;2.88;;
62832;SDS011;48891;49.220;6.920;2022-12-31T17:35:29;4.40;;;2.95;;
62832;SDS011;48891;49.220;6.920;2022-12-31T17:40:43;4.43;;;3.08;;
62832;SDS011;48891;49.220;6.920;2022-12-31T17:43:11;4.88;;;3.10;;
62832;SDS011;48891;49.220;6.920;2022-12-31T17:45:37;4.25;;;2.90;;
62832;SDS011;48891;49.220;6.920;2022-12-31T17:48:03;4.25;;;2.85;;
62832;SDS011;48891;49.220;6.920;2022-12-31T17:50:28;6.00;;;3.67;;
62832;SDS011;48891;49.220;6.920;2022-12-31T17:53:15;4.45;;;2.85;;
62832;SDS011;48891;49.220;6.920;2022-12-31T17:55:40;4.47;;;2.90;;
62832;SDS011;48891;49.220;6.920;2022-12-31T17:58:07;4.38;;;2.92;;
62832;SDS011;48891;49.220;6.920;2022-12-31T18:00:51;4.32;;;2.83;;
62832;SDS011;48891;49.220;6.920;2022-12-31T18:03:17;4.82;;;2.80;;
62832;SDS011;48891;49.220;6.920;2022-12-31T18:05:42;5.28;;;2.67;;
62832;SDS011;48891;49.220;6.920;2022-12-31T18:08:07;4.72;;;2.90;;
62832;SDS011;48891;49.220;6.920;2022-12-31T18:10:33;4.10;;;2.78;;
62832;SDS011;48891;49.220;6.920;2022-12-31T18:13:02;6.15;;;3.28;;
62832;SDS011;48891;49.220;6.920;2022-12-31T18:15:29;4.80;;;2.85;;
62832;SDS011;48891;49.220;6.920;2022-12-31T18:17:55;4.65;;;2.90;;
62832;SDS011;48891;49.220;6.920;2022-12-31T18:20:20;4.75;;;2.80;;
62832;SDS011;48891;49.220;6.920;2022-12-31T18:22:45;6.05;;;3.00;;
62832;SDS011;48891;49.220;6.920;2022-12-31T18:25:12;4.13;;;3.00;;
62832;SDS011;48891;49.220;6.920;2022-12-31T18:27:42;4.07;;;2.65;;
62832;SDS011;48891;49.220;6.920;2022-12-31T18:30:08;4.22;;;2.90;;
62832;SDS011;48891;49.220;6.920;2022-12-31T18:32:34;3.90;;;2.90;;
62832;SDS011;48891;49.220;6.920;2022-12-31T18:35:01;4.57;;;3.03;;
62832;SDS011;48891;49.220;6.920;2022-12-31T18:37:28;4.00;;;2.90;;
62832;SDS011;48891;49.220;6.920;2022-12-31T18:39:53;4.03;;;2.45;;
62832;SDS011;48891;49.220;6.920;2022-12-31T18:42:18;4.07;;;2.70;;
62832;SDS011;48891;49.220;6.920;2022-12-31T18:44:47;5.32;;;2.55;;
62832;SDS011;48891;49.220;6.920;2022-12-31T18:47:12;6.07;;;2.60;;
62832;SDS011;48891;49.220;6.920;2022-12-31T18:49:39;5.22;;;2.88;;
62832;SDS011;48891;49.220;6.920;2022-12-31T18:52:07;4.07;;;2.75;;
62832;SDS011;48891;49.220;6.920;2022-12-31T18:54:37;4.75;;;3.00;;
62832;SDS011;48891;49.220;6.920;2022-12-31T18:57:02;4.43;;;3.17;;
62832;SDS011;48891;49.220;6.920;2022-12-31T18:59:27;4.00;;;2.65;;
62832;SDS011;48891;49.220;6.920;2022-12-31T19:01:52;4.10;;;2.55;;
62832;SDS011;48891;49.220;6.920;2022-12-31T19:04:18;3.58;;;2.60;;
62832;SDS011;48891;49.220;6.920;2022-12-31T19:06:45;5.82;;;2.70;;
62832;SDS011;48891;49.220;6.920;2022-12-31T19:09:11;4.50;;;2.63;;
62832;SDS011;48891;49.220;6.920;2022-12-31T19:11:37;4.32;;;2.75;;
62832;SDS011;48891;49.220;6.920;2022-12-31T19:14:16;6.63;;;2.90;;
62832;SDS011;48891;49.220;6.920;2022-12-31T19:16:43;5.05;;;2.80;;
62832;SDS011;48891;49.220;6.920;2022-12-31T19:19:09;4.30;;;2.85;;
62832;SDS011;48891;49.220;6.920;2022-12-31T19:21:34;5.32;;;2.80;;
62832;SDS011;48891;49.220;6.920;2022-12-31T19:23:59;5.72;;;3.08;;